Time;durP1;ratioP1;P1;durP2;ratioP2;P2;SDS_P1;SDS_P2;PMS_P1;PMS_P2;Temp;Humidity;BMP_temperature;BMP_pressure;BME280_temperature;BME280_humidity;BME280_pressure;Samples;Min_cycle;Max_cycle;Signal;HPM_P1;HPM_P2
2022/07/30 00:00:15;;;;;;;;;;;26.70;90.40;;;;;;5052154;28;19928;-62
2022/07/30 00:02:51;;;;;;;;;;;26.80;90.30;;;;;;5044983;28;19929;-62
2022/07/30 00:05:19;;;;;;;;;;;26.80;90.40;;;;;;5039192;28;20405;-63
2022/07/30 00:07:47;;;;;;;;;;;26.80;90.40;;;;;;5041438;28;20400;-63
2022/07/30 00:10:14;;;;;;;;;;;26.70;90.30;;;;;;5046016;28;19937;-63
2022/07/30 00:12:41;;;;;;;;;;;26.70;90.30;;;;;;5046644;28;20400;-63
2022/07/30 00:15:08;;;;;;;;;;;26.70;90.30;;;;;;5050862;28;20015;-63
2022/07/30 00:17:35;;;;;;;;;;;26.70;90.30;;;;;;5057769;28;19928;-65
2022/07/30 00:20:03;;;;;;;;;;;26.70;90.30;;;;;;5038227;28;19929;-64
2022/07/30 00:22:31;;;;;;;;;;;26.70;90.30;;;;;;5052499;28;19935;-63
2022/07/30 00:24:58;;;;;;;;;;;26.70;90.30;;;;;;5052023;28;19933;-64
2022/07/30 00:27:25;;;;;;;;;;;26.70;90.20;;;;;;5046354;28;19951;-63
2022/07/30 00:29:52;;;;;;;;;;;26.70;90.30;;;;;;5049661;28;19930;-63
2022/07/30 00:32:19;;;;;;;;;;;26.70;90.30;;;;;;5048508;28;20336;-62
2022/07/30 00:34:46;;;;;;;;;;;26.70;90.40;;;;;;5037612;28;20336;-64
2022/07/30 00:37:13;;;;;;;;;;;26.70;90.40;;;;;;5045598;28;20303;-62
2022/07/30 00:39:41;;;;;;;;;;;26.70;90.40;;;;;;5043548;28;19929;-64
2022/07/30 00:42:08;;;;;;;;;;;26.70;90.40;;;;;;5054717;28;19935;-64
2022/07/30 00:44:35;;;;;;;;;;;26.70;90.40;;;;;;5039051;28;19928;-63
2022/07/30 00:47:07;;;;;;;;;;;26.70;90.40;;;;;;5051513;28;19937;-63
2022/07/30 00:49:34;;;;;;;;;;;26.70;90.40;;;;;;5041579;28;19928;-63
2022/07/30 00:52:01;;;;;;;;;;;26.70;90.40;;;;;;5037611;28;19929;-62
2022/07/30 00:54:28;;;;;;;;;;;26.70;90.50;;;;;;5049830;28;19936;-63
2022/07/30 00:56:55;;;;;;;;;;;26.70;90.40;;;;;;5048466;28;20338;-63
2022/07/30 00:59:23;;;;;;;;;;;26.60;90.40;;;;;;5047482;28;19936;-64
2022/07/30 01:01:50;;;;;;;;;;;26.70;90.40;;;;;;5048542;28;19937;-63
2022/07/30 01:04:17;;;;;;;;;;;26.70;90.50;;;;;;5051391;28;20423;-63
2022/07/30 01:06:44;;;;;;;;;;;26.70;90.50;;;;;;5057281;28;19944;-62
2022/07/30 01:09:11;;;;;;;;;;;26.60;90.40;;;;;;5052758;28;19928;-63
2022/07/30 01:11:39;;;;;;;;;;;26.70;90.50;;;;;;5055630;28;19936;-62
2022/07/30 01:14:07;;;;;;;;;;;26.70;90.40;;;;;;5040989;28;19929;-63
2022/07/30 01:16:36;;;;;;;;;;;26.70;90.50;;;;;;5054445;28;19925;-63
2022/07/30 01:22:12;;;;;;;;;;;26.70;90.50;;;;;;5043368;28;19925;-63
2022/07/30 01:24:43;;;;;;;;;;;26.60;90.40;;;;;;5006749;28;19932;-63
2022/07/30 01:27:11;;;;;;;;;;;26.70;90.50;;;;;;5054513;28;19936;-64
2022/07/30 01:29:44;;;;;;;;;;;26.60;90.50;;;;;;5051816;28;20289;-64
2022/07/30 01:32:12;;;;;;;;;;;26.60;90.50;;;;;;5056081;28;19929;-64
2022/07/30 01:34:41;;;;;;;;;;;26.60;90.40;;;;;;5048323;28;19936;-64
2022/07/30 01:37:09;;;;;;;;;;;26.60;90.50;;;;;;5043368;28;19936;-64
2022/07/30 01:39:37;;;;;;;;;;;26.60;90.40;;;;;;5031514;28;20281;-64
2022/07/30 01:42:06;;;;;;;;;;;26.60;90.40;;;;;;5047465;28;19925;-64
2022/07/30 01:44:33;;;;;;;;;;;26.60;90.40;;;;;;5045120;28;20313;-64
2022/07/30 01:47:01;;;;;;;;;;;26.60;90.40;;;;;;5057916;28;19928;-63
2022/07/30 01:49:29;;;;;;;;;;;26.60;90.40;;;;;;5050093;28;19928;-62
2022/07/30 01:51:58;;;;;;;;;;;26.60;90.40;;;;;;5056283;28;19929;-63
2022/07/30 01:54:26;;;;;;;;;;;26.60;90.40;;;;;;5050251;28;19929;-62
2022/07/30 01:56:54;;;;;;;;;;;26.60;90.40;;;;;;5052637;28;19939;-62
2022/07/30 01:59:23;;;;;;;;;;;26.60;90.40;;;;;;5055806;28;20282;-61
2022/07/30 02:01:51;;;;;;;;;;;26.60;90.30;;;;;;5046722;28;20250;-63
2022/07/30 02:04:19;;;;;;;;;;;26.60;90.30;;;;;;5045826;28;19933;-66
2022/07/30 02:06:51;;;;;;;;;;;26.60;90.30;;;;;;5050438;28;19940;-63
2022/07/30 02:09:23;;;;;;;;;;;26.60;90.30;;;;;;5047004;28;19956;-63
2022/07/30 02:14:48;;;;;;;;;;;26.60;90.30;;;;;;5049143;28;19931;-63
2022/07/30 02:17:21;;;;;;;;;;;26.60;90.40;;;;;;5051996;28;20308;-63
2022/07/30 02:19:57;;;;;;;;;;;26.60;90.40;;;;;;5038280;28;19929;-63
2022/07/30 02:22:26;;;;;;;;;;;26.50;90.30;;;;;;5041431;28;19929;-63
2022/07/30 02:24:54;;;;;;;;;;;26.50;90.40;;;;;;5056608;28;19951;-63
2022/07/30 02:27:25;;;;;;;;;;;26.50;90.40;;;;;;5052726;28;19939;-63
2022/07/30 02:29:54;;;;;;;;;;;26.50;90.40;;;;;;5045052;28;19925;-64
2022/07/30 02:32:23;;;;;;;;;;;26.50;90.40;;;;;;5055752;28;19925;-63
2022/07/30 02:34:59;;;;;;;;;;;26.50;90.40;;;;;;5039673;28;20312;-63
2022/07/30 02:37:28;;;;;;;;;;;26.50;90.40;;;;;;5058171;28;20305;-63
2022/07/30 02:40:14;;;;;;;;;;;26.50;90.50;;;;;;5043958;28;19929;-63
2022/07/30 02:42:46;;;;;;;;;;;26.50;90.50;;;;;;5045675;28;19952;-63
2022/07/30 02:45:17;;;;;;;;;;;26.50;90.50;;;;;;5061756;28;19925;-63
2022/07/30 02:47:45;;;;;;;;;;;26.50;90.40;;;;;;5059880;28;20173;-63
2022/07/30 02:50:14;;;;;;;;;;;26.50;90.40;;;;;;5052864;28;19929;-63
2022/07/30 02:52:43;;;;;;;;;;;26.50;90.40;;;;;;5051397;28;19935;-63
2022/07/30 02:55:11;;;;;;;;;;;26.50;90.40;;;;;;5051646;28;19929;-61
2022/07/30 02:57:40;;;;;;;;;;;26.50;90.30;;;;;;5045705;28;20316;-62
2022/07/30 03:00:11;;;;;;;;;;;26.50;89.90;;;;;;5052365;28;20419;-61
2022/07/30 03:02:39;;;;;;;;;;;26.50;88.20;;;;;;5052821;28;20358;-63
2022/07/30 03:05:10;;;;;;;;;;;26.50;87.00;;;;;;5047286;28;20364;-62
2022/07/30 03:07:38;;;;;;;;;;;26.40;85.20;;;;;;5057126;28;19924;-63
2022/07/30 03:10:06;;;;;;;;;;;26.40;85.30;;;;;;5027129;28;19980;-64
2022/07/30 03:12:35;;;;;;;;;;;26.30;83.70;;;;;;5061426;28;19924;-63
2022/07/30 03:15:02;;;;;;;;;;;26.30;83.50;;;;;;5053521;28;19936;-64
2022/07/30 03:17:31;;;;;;;;;;;26.30;84.40;;;;;;5050594;28;19936;-61
2022/07/30 03:20:01;;;;;;;;;;;26.30;83.70;;;;;;5043950;28;19936;-63
2022/07/30 03:22:28;;;;;;;;;;;26.30;83.90;;;;;;5051927;28;19940;-63
2022/07/30 03:25:00;;;;;;;;;;;26.30;83.30;;;;;;5045302;28;20375;-63
2022/07/30 03:27:27;;;;;;;;;;;26.30;83.10;;;;;;5049892;28;20436;-63
2022/07/30 03:29:55;;;;;;;;;;;26.30;83.10;;;;;;5066147;28;19932;-62
2022/07/30 03:32:22;;;;;;;;;;;26.30;83.20;;;;;;5057376;28;19983;-63
2022/07/30 03:34:53;;;;;;;;;;;26.20;83.10;;;;;;5050678;28;19924;-62
2022/07/30 03:37:23;;;;;;;;;;;26.20;83.10;;;;;;5054834;28;19929;-63
2022/07/30 03:39:52;;;;;;;;;;;26.20;83.10;;;;;;5044346;28;19925;-62
2022/07/30 03:42:20;;;;;;;;;;;26.20;83.10;;;;;;5049647;28;20380;-63
2022/07/30 03:44:48;;;;;;;;;;;26.20;83.10;;;;;;5052726;28;19935;-62
2022/07/30 03:47:16;;;;;;;;;;;26.20;83.10;;;;;;5052555;28;19928;-63
2022/07/30 03:49:47;;;;;;;;;;;26.20;83.00;;;;;;5036113;28;19932;-63
2022/07/30 03:52:16;;;;;;;;;;;26.20;83.00;;;;;;5049361;28;19928;-63
2022/07/30 03:54:46;;;;;;;;;;;26.20;82.90;;;;;;5047424;28;20277;-64
2022/07/30 03:57:39;;;;;;;;;;;26.20;82.90;;;;;;5050237;28;19951;-62
2022/07/30 04:00:12;;;;;;;;;;;26.20;82.90;;;;;;5049325;28;19939;-62
2022/07/30 04:02:43;;;;;;;;;;;26.20;82.90;;;;;;5046811;28;19928;-62
2022/07/30 04:05:26;;;;;;;;;;;26.10;82.80;;;;;;5040260;28;19933;-63
2022/07/30 04:08:04;;;;;;;;;;;26.10;82.80;;;;;;5050618;28;19929;-63
2022/07/30 04:10:32;;;;;;;;;;;26.10;82.70;;;;;;5056811;28;19936;-62
2022/07/30 04:12:59;;;;;;;;;;;26.10;82.70;;;;;;5051332;28;19947;-61
2022/07/30 04:15:30;;;;;;;;;;;26.10;82.70;;;;;;5069553;28;19932;-60
2022/07/30 04:18:18;;;;;;;;;;;26.10;82.70;;;;;;5047167;28;19932;-62
2022/07/30 04:20:47;;;;;;;;;;;26.10;82.70;;;;;;5055900;28;19935;-62
2022/07/30 04:23:14;;;;;;;;;;;26.10;82.60;;;;;;5048579;28;20032;-63
2022/07/30 04:25:43;;;;;;;;;;;26.10;82.60;;;;;;5047790;28;19925;-62
2022/07/30 04:28:11;;;;;;;;;;;26.10;82.60;;;;;;5045353;28;20431;-62
2022/07/30 04:30:39;;;;;;;;;;;26.10;82.50;;;;;;5048249;28;19929;-63
2022/07/30 04:33:07;;;;;;;;;;;26.10;82.50;;;;;;5039684;28;19936;-61
2022/07/30 04:36:12;;;;;;;;;;;26.10;82.50;;;;;;5035953;28;19929;-62
2022/07/30 04:38:42;;;;;;;;;;;26.10;82.40;;;;;;5057093;28;19925;-63
2022/07/30 04:41:10;;;;;;;;;;;26.10;82.40;;;;;;5050022;28;19932;-62
2022/07/30 04:44:16;;;;;;;;;;;26.10;82.30;;;;;;5036304;28;20135;-63
2022/07/30 04:46:58;;;;;;;;;;;26.10;82.30;;;;;;5052709;28;20497;-64
2022/07/30 04:49:26;;;;;;;;;;;26.00;82.20;;;;;;5061763;28;20376;-62
2022/07/30 04:51:54;;;;;;;;;;;26.10;82.20;;;;;;5049262;28;19929;-64
2022/07/30 04:54:23;;;;;;;;;;;26.00;82.10;;;;;;5051215;28;19932;-64
2022/07/30 04:56:53;;;;;;;;;;;26.00;82.10;;;;;;5051035;28;20011;-64
2022/07/30 04:59:23;;;;;;;;;;;26.10;82.10;;;;;;5050415;28;19929;-63
2022/07/30 05:01:52;;;;;;;;;;;26.10;82.10;;;;;;5053470;28;20406;-63
2022/07/30 05:04:20;;;;;;;;;;;26.10;82.00;;;;;;5068809;28;19929;-63
2022/07/30 05:06:49;;;;;;;;;;;26.00;81.90;;;;;;5052218;28;19925;-61
2022/07/30 05:09:16;;;;;;;;;;;26.00;81.90;;;;;;5050071;28;19936;-63
2022/07/30 05:11:51;;;;;;;;;;;26.00;81.80;;;;;;5050370;28;20296;-63
2022/07/30 05:14:19;;;;;;;;;;;26.00;81.80;;;;;;5060363;28;19941;-63
2022/07/30 05:16:46;;;;;;;;;;;26.00;81.70;;;;;;5044851;28;19936;-62
2022/07/30 05:19:13;;;;;;;;;;;26.00;81.70;;;;;;5050758;28;19932;-61
2022/07/30 05:21:40;;;;;;;;;;;26.00;81.70;;;;;;5064816;28;19936;-61
2022/07/30 05:24:07;;;;;;;;;;;26.00;81.60;;;;;;5048923;28;19939;-62
2022/07/30 05:26:47;;;;;;;;;;;26.10;81.50;;;;;;5040798;28;19936;-62
2022/07/30 05:29:17;;;;;;;;;;;26.20;81.40;;;;;;5049252;28;19944;-61
2022/07/30 05:31:58;;;;;;;;;;;26.20;81.30;;;;;;5042596;28;19925;-61
2022/07/30 05:34:32;;;;;;;;;;;26.20;81.30;;;;;;5056230;28;20246;-62
2022/07/30 05:36:59;;;;;;;;;;;26.20;81.40;;;;;;5048779;28;20416;-62
2022/07/30 05:39:26;;;;;;;;;;;26.10;81.30;;;;;;5045006;28;19955;-62
2022/07/30 05:41:54;;;;;;;;;;;26.10;81.50;;;;;;5054458;28;19935;-63
2022/07/30 05:44:25;;;;;;;;;;;26.10;82.30;;;;;;5061679;28;19928;-62
2022/07/30 05:46:52;;;;;;;;;;;26.10;82.60;;;;;;5046791;28;20396;-61
2022/07/30 05:49:19;;;;;;;;;;;26.10;82.80;;;;;;5040847;28;20315;-63
2022/07/30 05:51:47;;;;;;;;;;;26.20;82.90;;;;;;5052111;28;19928;-64
2022/07/30 05:54:17;;;;;;;;;;;26.10;82.90;;;;;;5067329;28;20292;-62
2022/07/30 05:57:02;;;;;;;;;;;26.20;82.90;;;;;;5051084;28;19936;-62
2022/07/30 05:59:39;;;;;;;;;;;26.10;82.90;;;;;;5054481;28;19962;-62
2022/07/30 06:02:08;;;;;;;;;;;26.20;82.90;;;;;;5048519;28;19933;-62
2022/07/30 06:04:54;;;;;;;;;;;26.20;82.80;;;;;;5052829;28;20304;-61
2022/07/30 06:07:22;;;;;;;;;;;26.20;82.90;;;;;;5060379;28;20091;-63
2022/07/30 06:09:51;;;;;;;;;;;26.20;82.90;;;;;;5049332;28;19929;-62
2022/07/30 06:12:18;;;;;;;;;;;26.20;82.80;;;;;;5043226;28;19926;-63
2022/07/30 06:14:46;;;;;;;;;;;26.20;82.80;;;;;;5049943;28;19936;-63
2022/07/30 06:17:19;;;;;;;;;;;26.20;82.90;;;;;;5055885;28;19929;-63
2022/07/30 06:20:13;;;;;;;;;;;26.20;82.90;;;;;;5046332;28;19948;-64
2022/07/30 06:23:19;;;;;;;;;;;26.20;82.80;;;;;;5043916;28;20331;-64
2022/07/30 06:26:05;;;;;;;;;;;26.30;82.90;;;;;;5052016;28;19933;-62
2022/07/30 06:28:33;;;;;;;;;;;26.30;82.90;;;;;;5045228;28;19936;-62
2022/07/30 06:31:11;;;;;;;;;;;26.30;82.70;;;;;;5063572;28;19929;-65
2022/07/30 06:33:38;;;;;;;;;;;26.30;82.60;;;;;;5046977;28;19929;-63
2022/07/30 06:36:05;;;;;;;;;;;26.40;82.60;;;;;;5041724;28;20317;-61
2022/07/30 06:38:45;;;;;;;;;;;26.40;82.60;;;;;;5052976;28;20222;-61
2022/07/30 06:41:22;;;;;;;;;;;26.40;82.60;;;;;;5061495;28;19924;-63
2022/07/30 06:43:52;;;;;;;;;;;26.40;82.60;;;;;;5049791;28;19925;-63
2022/07/30 06:46:38;;;;;;;;;;;26.40;82.60;;;;;;5048002;28;19925;-62
2022/07/30 06:49:05;;;;;;;;;;;26.40;82.50;;;;;;5062602;28;20034;-62
2022/07/30 06:51:33;;;;;;;;;;;26.40;82.40;;;;;;5057192;28;19929;-64
2022/07/30 06:54:00;;;;;;;;;;;26.30;82.20;;;;;;5043034;28;19929;-65
2022/07/30 06:56:47;;;;;;;;;;;26.30;82.30;;;;;;5046779;28;20380;-64
2022/07/30 06:59:15;;;;;;;;;;;26.30;82.30;;;;;;5050912;28;19929;-62
2022/07/30 07:02:04;;;;;;;;;;;26.30;82.50;;;;;;5057084;28;19928;-62
2022/07/30 07:04:41;;;;;;;;;;;26.30;83.30;;;;;;5073400;28;20427;-63
2022/07/30 07:07:08;;;;;;;;;;;26.30;83.90;;;;;;5047829;28;19929;-65
2022/07/30 07:09:40;;;;;;;;;;;26.30;83.50;;;;;;5050525;28;19940;-64
2022/07/30 07:12:29;;;;;;;;;;;26.40;83.80;;;;;;5064162;28;20008;-63
2022/07/30 07:14:56;;;;;;;;;;;26.50;84.00;;;;;;5052066;28;19951;-64
2022/07/30 07:17:23;;;;;;;;;;;26.50;84.70;;;;;;5051833;28;19940;-66
2022/07/30 07:19:57;;;;;;;;;;;26.40;83.90;;;;;;5054401;28;20360;-63
2022/07/30 07:22:33;;;;;;;;;;;26.40;84.40;;;;;;5039762;28;19928;-60
2022/07/30 07:25:01;;;;;;;;;;;26.40;84.60;;;;;;5043016;28;19933;-64
2022/07/30 07:27:31;;;;;;;;;;;26.50;85.30;;;;;;5041260;28;19933;-64
2022/07/30 07:30:00;;;;;;;;;;;26.50;85.50;;;;;;5054586;28;19954;-64
2022/07/30 07:32:34;;;;;;;;;;;26.50;85.50;;;;;;5043442;28;19929;-64
2022/07/30 07:35:02;;;;;;;;;;;26.50;85.70;;;;;;5034247;28;19936;-66
2022/07/30 07:37:31;;;;;;;;;;;26.50;85.80;;;;;;5063772;28;19932;-65
2022/07/30 07:39:58;;;;;;;;;;;26.50;85.90;;;;;;5050302;28;19928;-62
2022/07/30 07:42:28;;;;;;;;;;;26.50;85.90;;;;;;5059002;28;20309;-62
2022/07/30 07:44:56;;;;;;;;;;;26.50;86.00;;;;;;5041623;28;19951;-64
2022/07/30 07:47:23;;;;;;;;;;;26.60;86.10;;;;;;5058357;28;19935;-67
2022/07/30 07:50:05;;;;;;;;;;;26.60;86.40;;;;;;5036540;28;19928;-66
2022/07/30 07:52:32;;;;;;;;;;;26.60;86.40;;;;;;5043354;28;19935;-65
2022/07/30 07:54:59;;;;;;;;;;;26.60;86.40;;;;;;5048838;28;19928;-66
2022/07/30 07:57:29;;;;;;;;;;;26.50;86.00;;;;;;5033145;28;19936;-66
2022/07/30 07:59:58;;;;;;;;;;;26.50;85.70;;;;;;5040914;28;20398;-65
2022/07/30 08:02:26;;;;;;;;;;;26.50;85.50;;;;;;5069527;28;19928;-66
2022/07/30 08:05:04;;;;;;;;;;;26.50;85.30;;;;;;5041673;28;19932;-63
2022/07/30 08:07:49;;;;;;;;;;;26.50;85.30;;;;;;5056181;28;19936;-62
2022/07/30 08:10:35;;;;;;;;;;;26.50;84.80;;;;;;5040650;28;19928;-62
2022/07/30 08:13:28;;;;;;;;;;;26.60;84.30;;;;;;5008136;28;19947;-61
2022/07/30 08:16:34;;;;;;;;;;;26.60;84.60;;;;;;5047421;28;20408;-65
2022/07/30 08:19:30;;;;;;;;;;;26.60;85.20;;;;;;5034829;28;20391;-64
2022/07/30 08:22:11;;;;;;;;;;;26.60;85.90;;;;;;5040311;28;19939;-66
2022/07/30 08:24:39;;;;;;;;;;;26.60;85.00;;;;;;5043496;28;20343;-65
2022/07/30 08:27:09;;;;;;;;;;;26.60;85.50;;;;;;5040644;28;20304;-64
2022/07/30 08:29:36;;;;;;;;;;;26.70;85.80;;;;;;5050239;28;19929;-64
2022/07/30 08:32:04;;;;;;;;;;;26.60;85.80;;;;;;5042726;28;20308;-63
2022/07/30 08:34:34;;;;;;;;;;;26.70;86.00;;;;;;5041025;28;19932;-63
2022/07/30 08:37:02;;;;;;;;;;;26.60;86.30;;;;;;5046796;28;19933;-63
2022/07/30 08:39:29;;;;;;;;;;;26.70;86.40;;;;;;5038549;28;19948;-63
2022/07/30 08:41:57;;;;;;;;;;;26.70;86.60;;;;;;5059528;28;20364;-63
2022/07/30 08:44:25;;;;;;;;;;;26.70;86.50;;;;;;5042762;28;20324;-62
2022/07/30 08:46:55;;;;;;;;;;;26.70;86.30;;;;;;5047356;28;19924;-63
2022/07/30 08:49:34;;;;;;;;;;;26.60;85.60;;;;;;5042533;28;20275;-62
2022/07/30 08:52:02;;;;;;;;;;;26.60;85.50;;;;;;5064526;28;20359;-60
2022/07/30 08:54:50;;;;;;;;;;;26.60;85.80;;;;;;5048883;28;20269;-62
2022/07/30 08:57:17;;;;;;;;;;;26.70;86.10;;;;;;5049874;28;19933;-63
2022/07/30 08:59:45;;;;;;;;;;;26.70;86.20;;;;;;5033896;28;19951;-62
2022/07/30 09:02:29;;;;;;;;;;;26.80;86.50;;;;;;5047046;28;19939;-63
2022/07/30 09:05:02;;;;;;;;;;;26.70;86.50;;;;;;5038160;28;19939;-63
2022/07/30 09:07:31;;;;;;;;;;;26.80;86.50;;;;;;5036505;28;19964;-62
2022/07/30 09:09:59;;;;;;;;;;;26.80;86.50;;;;;;5038164;28;19944;-63
2022/07/30 09:12:32;;;;;;;;;;;26.80;86.40;;;;;;5057180;28;19940;-64
2022/07/30 09:15:04;;;;;;;;;;;26.70;86.00;;;;;;5040057;28;19936;-64
2022/07/30 09:17:51;;;;;;;;;;;26.80;85.40;;;;;;5047148;28;20324;-60
2022/07/30 09:20:22;;;;;;;;;;;26.70;85.30;;;;;;5052907;28;19936;-64
2022/07/30 09:22:50;;;;;;;;;;;26.70;85.00;;;;;;5049180;28;19939;-63
2022/07/30 09:25:45;;;;;;;;;;;26.60;84.20;;;;;;5050976;28;19928;-61
2022/07/30 09:28:34;;;;;;;;;;;26.60;83.80;;;;;;5035054;28;19936;-64
2022/07/30 09:31:13;;;;;;;;;;;26.60;83.40;;;;;;5047229;28;20397;-64
2022/07/30 09:33:59;;;;;;;;;;;26.70;83.30;;;;;;5050294;28;20301;-63
2022/07/30 09:36:38;;;;;;;;;;;26.70;82.40;;;;;;5047534;28;19948;-64
2022/07/30 09:39:27;;;;;;;;;;;26.60;82.30;;;;;;5050587;28;19930;-63
2022/07/30 09:42:22;;;;;;;;;;;26.70;82.10;;;;;;5044762;28;19933;-63
2022/07/30 09:45:03;;;;;;;;;;;26.70;81.70;;;;;;5064339;28;19929;-64
2022/07/30 09:47:33;;;;;;;;;;;26.70;81.60;;;;;;5043825;28;20774;-63
2022/07/30 09:50:02;;;;;;;;;;;26.70;80.90;;;;;;5042924;28;19928;-64
2022/07/30 09:52:34;;;;;;;;;;;26.70;80.60;;;;;;5044233;28;19935;-61
2022/07/30 09:55:01;;;;;;;;;;;26.70;80.20;;;;;;5041437;28;19939;-63
2022/07/30 09:57:30;;;;;;;;;;;26.70;80.00;;;;;;5047854;28;19929;-62
2022/07/30 10:00:18;;;;;;;;;;;26.70;79.80;;;;;;5050322;28;19932;-62
2022/07/30 10:03:17;;;;;;;;;;;26.70;79.70;;;;;;5050045;28;20406;-62
2022/07/30 10:06:40;;;;;;;;;;;26.70;78.90;;;;;;5048812;28;20411;-64
2022/07/30 10:09:44;;;;;;;;;;;26.80;79.00;;;;;;5045618;28;19925;-62
2022/07/30 10:12:14;;;;;;;;;;;26.80;79.60;;;;;;5044631;28;19959;-61
2022/07/30 10:14:46;;;;;;;;;;;26.80;80.30;;;;;;5050881;28;19936;-65
2022/07/30 10:17:16;;;;;;;;;;;26.80;80.70;;;;;;5045241;28;19929;-62
2022/07/30 10:20:06;;;;;;;;;;;26.80;81.10;;;;;;5054575;28;20324;-62
2022/07/30 10:22:53;;;;;;;;;;;26.90;81.60;;;;;;5044381;28;19929;-63
2022/07/30 10:25:54;;;;;;;;;;;26.80;81.90;;;;;;5037115;28;19937;-64
2022/07/30 10:28:40;;;;;;;;;;;26.80;82.20;;;;;;5055934;28;19994;-63
2022/07/30 10:31:07;;;;;;;;;;;26.80;82.40;;;;;;5040653;28;19936;-64
2022/07/30 10:33:55;;;;;;;;;;;26.80;82.70;;;;;;5043529;28;19925;-64
2022/07/30 10:36:23;;;;;;;;;;;26.80;83.00;;;;;;5046720;28;19939;-61
2022/07/30 10:38:51;;;;;;;;;;;26.90;83.20;;;;;;5047878;28;19929;-63
2022/07/30 10:41:37;;;;;;;;;;;26.90;83.30;;;;;;5040208;28;19939;-62
2022/07/30 10:44:22;;;;;;;;;;;26.90;84.00;;;;;;5043828;28;19928;-64
2022/07/30 10:46:59;;;;;;;;;;;26.90;83.60;;;;;;5049810;28;20039;-66
2022/07/30 10:49:34;;;;;;;;;;;26.90;83.60;;;;;;5049491;28;20456;-63
2022/07/30 10:52:07;;;;;;;;;;;26.90;83.60;;;;;;5046947;28;20345;-66
2022/07/30 10:54:35;;;;;;;;;;;26.90;83.50;;;;;;5044703;28;19948;-63
2022/07/30 10:57:13;;;;;;;;;;;26.90;83.80;;;;;;5040073;28;19929;-63
2022/07/30 10:59:58;;;;;;;;;;;26.90;84.40;;;;;;5037867;28;19932;-63
2022/07/30 11:02:27;;;;;;;;;;;26.90;84.80;;;;;;5053602;28;19929;-61
2022/07/30 11:05:16;;;;;;;;;;;26.90;85.30;;;;;;5058192;28;19932;-58
2022/07/30 11:07:46;;;;;;;;;;;26.90;85.80;;;;;;5057000;28;19929;-63
2022/07/30 11:10:36;;;;;;;;;;;26.90;86.30;;;;;;5042929;28;19936;-66
2022/07/30 11:13:04;;;;;;;;;;;26.90;87.00;;;;;;5045303;28;19940;-64
2022/07/30 11:15:54;;;;;;;;;;;26.90;87.80;;;;;;5046153;28;19924;-65
2022/07/30 11:18:23;;;;;;;;;;;26.90;88.40;;;;;;5018569;28;19929;-63
2022/07/30 11:21:23;;;;;;;;;;;26.90;89.10;;;;;;5046117;28;19936;-63
2022/07/30 11:23:51;;;;;;;;;;;26.90;89.20;;;;;;5019693;28;19929;-62
2022/07/30 11:26:40;;;;;;;;;;;26.90;89.50;;;;;;5043253;28;19935;-64
2022/07/30 11:29:27;;;;;;;;;;;26.90;90.00;;;;;;5049994;28;19932;-65
2022/07/30 11:32:35;;;;;;;;;;;26.90;90.00;;;;;;5044732;28;20296;-60
2022/07/30 11:35:22;;;;;;;;;;;26.90;89.60;;;;;;5017302;28;20361;-66
2022/07/30 11:37:55;;;;;;;;;;;26.90;90.00;;;;;;5047848;28;19936;-63
2022/07/30 11:40:24;;;;;;;;;;;26.90;90.30;;;;;;5045514;28;19940;-63
2022/07/30 11:43:24;;;;;;;;;;;27.00;90.40;;;;;;5041456;28;19929;-63
2022/07/30 11:46:08;;;;;;;;;;;26.90;90.50;;;;;;5030927;28;19936;-65
2022/07/30 11:48:38;;;;;;;;;;;27.00;90.70;;;;;;5038670;28;20431;-65
2022/07/30 11:51:05;;;;;;;;;;;27.00;91.50;;;;;;5049637;28;19931;-61
2022/07/30 11:53:32;;;;;;;;;;;27.00;92.60;;;;;;5045462;28;19936;-61
2022/07/30 11:56:01;;;;;;;;;;;27.00;93.00;;;;;;5052327;28;19928;-62
2022/07/30 11:58:28;;;;;;;;;;;27.00;93.30;;;;;;5064205;28;19937;-62
2022/07/30 12:00:56;;;;;;;;;;;27.00;93.60;;;;;;5048570;28;19936;-63
2022/07/30 12:03:25;;;;;;;;;;;27.00;93.70;;;;;;5058995;28;19932;-65
2022/07/30 12:06:01;;;;;;;;;;;27.10;93.60;;;;;;5045553;28;20444;-61
2022/07/30 12:08:28;;;;;;;;;;;27.00;93.40;;;;;;5063174;28;20381;-63
2022/07/30 12:11:02;;;;;;;;;;;27.10;93.20;;;;;;5044156;28;19940;-62
2022/07/30 12:13:29;;;;;;;;;;;27.10;93.10;;;;;;5054049;28;19935;-64
2022/07/30 12:16:15;;;;;;;;;;;27.10;93.00;;;;;;5052718;28;19928;-64
2022/07/30 12:18:43;;;;;;;;;;;27.10;92.80;;;;;;5053003;28;20377;-67
2022/07/30 12:21:11;;;;;;;;;;;27.00;92.80;;;;;;5034390;28;19948;-64
2022/07/30 12:23:40;;;;;;;;;;;27.00;92.80;;;;;;5042984;28;19986;-64
2022/07/30 12:26:08;;;;;;;;;;;27.10;92.50;;;;;;5037913;28;19936;-65
2022/07/30 12:28:35;;;;;;;;;;;27.00;92.10;;;;;;5040612;28;19937;-63
2022/07/30 12:31:05;;;;;;;;;;;27.10;91.80;;;;;;5045754;28;19928;-67
2022/07/30 12:33:32;;;;;;;;;;;27.10;91.60;;;;;;5042284;28;19929;-66
2022/07/30 12:36:00;;;;;;;;;;;27.20;91.60;;;;;;5045248;28;19929;-66
2022/07/30 12:38:27;;;;;;;;;;;27.20;91.70;;;;;;5043282;28;19929;-67
2022/07/30 12:40:57;;;;;;;;;;;27.20;91.70;;;;;;5044932;28;19933;-65
2022/07/30 12:43:41;;;;;;;;;;;27.30;92.10;;;;;;5045094;28;20396;-61
2022/07/30 12:46:09;;;;;;;;;;;27.40;92.40;;;;;;5041925;28;19929;-61
2022/07/30 12:48:59;;;;;;;;;;;27.40;92.70;;;;;;5042685;28;19936;-61
2022/07/30 12:51:51;;;;;;;;;;;27.50;92.80;;;;;;5039504;28;20455;-62
2022/07/30 12:54:26;;;;;;;;;;;27.50;93.00;;;;;;5037260;28;19944;-61
2022/07/30 12:56:58;;;;;;;;;;;27.50;93.10;;;;;;5046238;28;19928;-63
2022/07/30 12:59:26;;;;;;;;;;;27.50;93.10;;;;;;5040864;28;19933;-61
2022/07/30 13:01:56;;;;;;;;;;;27.50;93.20;;;;;;5045967;28;19929;-63
2022/07/30 13:04:23;;;;;;;;;;;27.50;93.30;;;;;;5038160;28;19925;-63
2022/07/30 13:07:06;;;;;;;;;;;27.50;93.20;;;;;;5040684;28;20491;-63
2022/07/30 13:09:34;;;;;;;;;;;27.60;93.20;;;;;;5043247;28;19929;-65
2022/07/30 13:12:01;;;;;;;;;;;27.60;93.00;;;;;;5042084;28;19929;-62
2022/07/30 13:14:29;;;;;;;;;;;27.50;92.80;;;;;;5040743;28;19940;-63
2022/07/30 13:16:57;;;;;;;;;;;27.60;92.60;;;;;;5045350;28;19928;-63
2022/07/30 13:19:25;;;;;;;;;;;27.60;92.30;;;;;;5040699;28;19932;-63
2022/07/30 13:21:52;;;;;;;;;;;27.60;92.20;;;;;;5045791;28;19924;-63
2022/07/30 13:24:19;;;;;;;;;;;27.70;92.00;;;;;;5038463;28;19932;-60
2022/07/30 13:26:46;;;;;;;;;;;27.60;91.50;;;;;;5042059;28;19925;-61
2022/07/30 13:29:16;;;;;;;;;;;27.70;91.20;;;;;;5048680;28;19929;-63
2022/07/30 13:31:44;;;;;;;;;;;27.70;90.80;;;;;;5042730;28;19932;-64
2022/07/30 13:34:11;;;;;;;;;;;27.70;90.40;;;;;;5041356;28;20358;-62
2022/07/30 13:36:38;;;;;;;;;;;27.70;90.00;;;;;;5040122;28;19928;-62
2022/07/30 13:39:05;;;;;;;;;;;27.70;89.60;;;;;;5050227;28;19955;-65
2022/07/30 13:41:34;;;;;;;;;;;27.70;89.00;;;;;;5057204;28;19936;-62
2022/07/30 13:44:02;;;;;;;;;;;27.70;88.50;;;;;;5055241;28;19951;-66
2022/07/30 13:46:29;;;;;;;;;;;27.70;88.10;;;;;;5046141;28;19936;-63
2022/07/30 13:48:56;;;;;;;;;;;27.70;87.70;;;;;;5047933;28;19935;-65
2022/07/30 13:51:24;;;;;;;;;;;27.70;87.10;;;;;;5052942;28;20285;-65
2022/07/30 13:53:51;;;;;;;;;;;27.70;86.40;;;;;;5049784;28;19933;-64
2022/07/30 13:56:18;;;;;;;;;;;27.80;85.80;;;;;;5058937;28;19929;-65
2022/07/30 13:58:46;;;;;;;;;;;27.80;85.30;;;;;;5043414;28;20315;-66
2022/07/30 14:01:14;;;;;;;;;;;27.80;85.10;;;;;;5044502;28;20320;-64
2022/07/30 14:03:44;;;;;;;;;;;27.90;84.90;;;;;;5042540;28;19977;-65
2022/07/30 14:06:17;;;;;;;;;;;27.80;84.60;;;;;;5051557;28;19925;-65
2022/07/30 14:08:45;;;;;;;;;;;27.90;84.40;;;;;;5045355;28;19929;-66
2022/07/30 14:11:12;;;;;;;;;;;27.90;84.20;;;;;;5045392;28;19929;-64
2022/07/30 14:13:40;;;;;;;;;;;27.90;83.80;;;;;;5036227;28;19925;-65
2022/07/30 14:16:07;;;;;;;;;;;28.00;83.40;;;;;;5048593;28;20356;-64
2022/07/30 14:18:56;;;;;;;;;;;28.00;83.00;;;;;;5049653;28;19929;-66
2022/07/30 14:21:23;;;;;;;;;;;28.10;82.50;;;;;;5047334;28;19925;-66
2022/07/30 14:23:50;;;;;;;;;;;28.10;82.20;;;;;;5041458;28;19936;-65
2022/07/30 14:26:18;;;;;;;;;;;28.10;81.90;;;;;;5042096;28;19933;-66
2022/07/30 14:29:05;;;;;;;;;;;28.20;81.70;;;;;;5051360;28;20302;-65
2022/07/30 14:31:32;;;;;;;;;;;28.20;81.50;;;;;;5045862;28;20007;-63
2022/07/30 14:34:00;;;;;;;;;;;28.20;81.20;;;;;;5043963;28;19948;-67
2022/07/30 14:36:28;;;;;;;;;;;28.30;81.80;;;;;;5042370;28;19929;-64
2022/07/30 14:38:56;;;;;;;;;;;28.30;80.90;;;;;;5048074;28;19944;-65
2022/07/30 14:41:24;;;;;;;;;;;28.30;80.60;;;;;;5049158;28;19929;-66
2022/07/30 14:43:51;;;;;;;;;;;28.30;80.90;;;;;;5054513;28;19940;-66
2022/07/30 14:46:19;;;;;;;;;;;28.40;80.10;;;;;;5056297;28;20020;-66
2022/07/30 14:48:46;;;;;;;;;;;28.40;79.80;;;;;;5051562;28;19933;-67
2022/07/30 14:51:14;;;;;;;;;;;28.40;79.60;;;;;;5041337;28;19936;-66
2022/07/30 14:53:49;;;;;;;;;;;28.40;79.50;;;;;;5049460;28;20330;-63